Time;durP1;ratioP1;P1;durP2;ratioP2;P2;SDS_P1;SDS_P2;PMS_P1;PMS_P2;Temp;Humidity;BMP_temperature;BMP_pressure;BME280_temperature;BME280_humidity;BME280_pressure;Samples;Min_cycle;Max_cycle;Signal;HPM_P1;HPM_P2
2023/08/21 00:00:53;;;;;;;21.30;14.90;;;24.10;99.90;;;;;;4951530;28;20031;-73
2023/08/21 00:03:20;;;;;;;24.23;15.25;;;24.10;99.90;;;;;;4957770;28;20473;-74
2023/08/21 00:05:46;;;;;;;21.38;16.05;;;24.00;99.90;;;;;;4955334;28;20065;-73
2023/08/21 00:08:12;;;;;;;22.45;17.25;;;24.00;99.90;;;;;;4938251;28;20471;-73
2023/08/21 00:10:38;;;;;;;22.75;16.58;;;23.90;99.90;;;;;;4955462;28;20396;-74
2023/08/21 00:13:05;;;;;;;21.52;16.50;;;23.80;99.90;;;;;;4956655;28;20065;-73
2023/08/21 00:15:31;;;;;;;22.83;16.48;;;23.80;99.90;;;;;;4955214;28;20030;-74
2023/08/21 00:17:57;;;;;;;20.65;16.35;;;23.80;99.90;;;;;;4958036;28;20102;-74
2023/08/21 00:20:23;;;;;;;26.90;17.00;;;23.80;99.90;;;;;;4955620;28;20051;-73
2023/08/21 00:22:49;;;;;;;20.67;15.60;;;23.90;99.90;;;;;;4938467;28;20027;-74
2023/08/21 00:25:14;;;;;;;20.40;16.55;;;23.80;99.90;;;;;;4955862;28;20030;-73
2023/08/21 00:27:40;;;;;;;22.83;14.77;;;23.80;99.90;;;;;;4955513;28;20031;-74
2023/08/21 00:30:07;;;;;;;23.77;17.15;;;23.70;99.90;;;;;;4955085;28;20046;-74
2023/08/21 00:32:33;;;;;;;24.65;16.02;;;23.60;99.90;;;;;;4937562;28;20075;-73
2023/08/21 00:34:59;;;;;;;20.10;15.73;;;23.60;99.90;;;;;;4954369;28;20027;-74
2023/08/21 00:37:25;;;;;;;24.52;17.02;;;23.60;99.90;;;;;;4937506;28;20034;-73
2023/08/21 00:39:50;;;;;;;25.05;16.90;;;23.50;99.90;;;;;;4954544;28;20439;-74
2023/08/21 00:42:16;;;;;;;23.02;15.15;;;23.50;99.90;;;;;;4955252;28;20430;-73
2023/08/21 00:44:42;;;;;;;19.40;14.73;;;23.50;99.90;;;;;;4955103;28;20061;-74
2023/08/21 00:47:09;;;;;;;29.35;15.25;;;23.50;99.90;;;;;;4938267;28;20021;-74
2023/08/21 00:49:36;;;;;;;23.83;15.45;;;23.50;99.90;;;;;;4954826;28;20046;-73
2023/08/21 00:52:02;;;;;;;23.02;16.05;;;23.50;99.90;;;;;;4955453;28;20019;-74
2023/08/21 00:54:31;;;;;;;19.95;14.77;;;23.50;99.90;;;;;;4937793;28;20035;-74
2023/08/21 00:56:57;;;;;;;19.65;14.85;;;23.60;99.90;;;;;;4955110;28;20106;-73
2023/08/21 00:59:23;;;;;;;20.13;14.95;;;23.60;99.90;;;;;;4954967;28;20114;-73
2023/08/21 01:01:49;;;;;;;21.60;14.98;;;23.60;99.90;;;;;;4938052;28;20030;-74
2023/08/21 01:04:15;;;;;;;20.50;14.48;;;23.50;99.90;;;;;;4960546;28;20395;-73
2023/08/21 01:06:41;;;;;;;20.35;14.90;;;23.50;99.90;;;;;;4954843;28;20015;-73
2023/08/21 01:09:44;;;;;;;19.08;15.25;;;23.40;99.90;;;;;;4954806;28;20032;-73
2023/08/21 01:12:34;;;;;;;19.73;15.85;;;23.40;99.90;;;;;;4943233;28;20134;-75
2023/08/21 01:15:05;;;;;;;20.88;15.05;;;23.40;99.90;;;;;;4938053;28;20027;-73
2023/08/21 01:17:35;;;;;;;23.42;14.88;;;23.40;99.90;;;;;;4974290;28;20110;-73
2023/08/21 01:20:03;;;;;;;23.23;14.57;;;23.40;99.90;;;;;;4957842;28;20054;-73
2023/08/21 01:22:36;;;;;;;20.35;14.77;;;23.40;99.90;;;;;;4957293;28;20034;-74
2023/08/21 01:25:06;;;;;;;19.60;14.35;;;23.40;99.90;;;;;;4957795;28;20034;-74
2023/08/21 01:27:33;;;;;;;18.25;13.63;;;23.40;99.90;;;;;;4974845;28;20494;-74
2023/08/21 01:30:00;;;;;;;18.67;13.85;;;23.40;99.90;;;;;;4957531;28;20514;-74
2023/08/21 01:32:29;;;;;;;19.65;14.95;;;23.40;99.90;;;;;;4974938;28;20383;-72
2023/08/21 01:34:56;;;;;;;19.98;15.43;;;23.40;99.90;;;;;;4975116;28;20035;-74
2023/08/21 01:37:24;;;;;;;22.38;15.00;;;23.30;99.90;;;;;;4957275;28;20031;-73
2023/08/21 01:39:49;;;;;;;20.17;15.50;;;23.30;99.90;;;;;;4957536;28;20081;-73
2023/08/21 01:42:15;;;;;;;20.75;14.02;;;23.40;99.90;;;;;;4975341;28;20043;-73
2023/08/21 01:44:41;;;;;;;19.50;14.50;;;23.40;99.90;;;;;;4974762;28;20027;-73
2023/08/21 01:47:07;;;;;;;21.02;15.02;;;23.40;99.90;;;;;;4957353;28;20386;-74
2023/08/21 01:49:33;;;;;;;17.45;14.05;;;23.40;99.90;;;;;;4974372;28;20037;-74
2023/08/21 01:51:59;;;;;;;20.42;15.40;;;23.40;99.90;;;;;;4949855;28;20035;-73
2023/08/21 01:54:25;;;;;;;19.83;13.90;;;23.30;99.90;;;;;;4974373;28;20035;-74
2023/08/21 01:56:50;;;;;;;18.85;14.75;;;23.30;99.90;;;;;;4956604;28;20125;-73
2023/08/21 01:59:17;;;;;;;19.05;13.70;;;23.20;99.90;;;;;;4956650;28;20125;-74
2023/08/21 02:01:43;;;;;;;21.60;14.73;;;23.30;99.90;;;;;;4960596;28;20451;-73
2023/08/21 02:04:08;;;;;;;21.08;15.43;;;23.30;99.90;;;;;;4957127;28;20081;-74
2023/08/21 02:06:34;;;;;;;19.67;14.88;;;23.30;99.90;;;;;;4974392;28;20049;-74
2023/08/21 02:09:00;;;;;;;21.92;15.07;;;23.20;99.90;;;;;;4974043;28;20066;-73
2023/08/21 02:11:26;;;;;;;20.95;14.80;;;23.20;99.90;;;;;;4944301;28;20055;-73
2023/08/21 02:13:52;;;;;;;20.55;15.43;;;23.20;99.90;;;;;;4974284;28;20163;-74
2023/08/21 02:16:18;;;;;;;20.55;15.18;;;23.10;99.90;;;;;;4957112;28;20063;-74
2023/08/21 02:18:44;;;;;;;24.17;15.30;;;23.10;99.90;;;;;;4940747;28;20073;-75
2023/08/21 02:21:09;;;;;;;19.83;15.63;;;23.10;99.90;;;;;;4974040;28;20015;-74
2023/08/21 02:23:35;;;;;;;22.40;14.63;;;23.20;99.90;;;;;;4974551;28;20102;-73
2023/08/21 02:26:01;;;;;;;19.52;15.32;;;23.20;99.90;;;;;;4955163;28;20394;-73
2023/08/21 02:28:27;;;;;;;20.88;15.32;;;23.10;99.90;;;;;;4974079;28;20065;-74
2023/08/21 02:30:53;;;;;;;19.83;15.43;;;23.10;99.90;;;;;;4956191;28;20042;-73
2023/08/21 02:33:18;;;;;;;22.27;15.88;;;23.10;99.90;;;;;;4973838;28;20030;-73
2023/08/21 02:35:44;;;;;;;24.13;15.00;;;23.10;99.90;;;;;;4973895;28;20022;-73
2023/08/21 02:38:10;;;;;;;20.05;15.23;;;23.10;99.90;;;;;;4974131;28;20030;-74
2023/08/21 02:40:36;;;;;;;20.33;15.07;;;23.10;99.90;;;;;;4973500;28;20041;-74
2023/08/21 02:43:02;;;;;;;19.75;14.52;;;23.10;99.90;;;;;;4956334;28;21054;-73
2023/08/21 02:45:28;;;;;;;19.13;14.27;;;23.10;99.90;;;;;;4973893;28;20034;-74
2023/08/21 02:47:54;;;;;;;20.70;15.63;;;23.10;99.90;;;;;;4956066;28;20023;-74
2023/08/21 02:50:20;;;;;;;21.77;15.88;;;23.10;99.90;;;;;;4955893;28;20494;-73
2023/08/21 02:52:45;;;;;;;18.85;14.77;;;23.10;99.90;;;;;;4973464;28;20030;-73
2023/08/21 02:55:11;;;;;;;23.45;15.20;;;23.00;99.90;;;;;;4940362;28;20050;-73
2023/08/21 02:57:37;;;;;;;23.98;15.77;;;23.00;99.90;;;;;;4973694;28;20091;-74
2023/08/21 03:00:04;;;;;;;21.52;15.98;;;23.00;99.90;;;;;;4956128;28;20037;-73
2023/08/21 03:02:31;;;;;;;20.42;15.60;;;22.90;99.90;;;;;;4940830;28;20500;-73
2023/08/21 03:04:57;;;;;;;20.23;14.45;;;22.90;99.90;;;;;;4973276;28;20046;-74
2023/08/21 03:07:23;;;;;;;18.60;15.30;;;22.90;99.90;;;;;;4973499;28;20026;-73
2023/08/21 03:09:50;;;;;;;22.98;15.90;;;22.90;99.90;;;;;;4955562;28;20478;-73
2023/08/21 03:12:15;;;;;;;23.85;15.85;;;22.90;99.90;;;;;;4955958;28;20056;-73
2023/08/21 03:14:41;;;;;;;19.90;15.73;;;22.90;99.90;;;;;;4955875;28;20046;-74
2023/08/21 03:17:08;;;;;;;21.48;16.05;;;22.90;99.90;;;;;;4955853;28;20031;-73
2023/08/21 03:19:33;;;;;;;20.35;14.40;;;22.90;99.90;;;;;;4955672;28;20037;-73
2023/08/21 03:21:59;;;;;;;20.40;16.08;;;22.90;99.90;;;;;;4956098;28;20054;-72
2023/08/21 03:24:25;;;;;;;25.73;16.17;;;22.90;99.90;;;;;;4955356;28;20073;-73
2023/08/21 03:26:51;;;;;;;22.88;16.38;;;22.90;99.90;;;;;;4985350;28;20463;-73
2023/08/21 03:29:17;;;;;;;22.48;15.40;;;22.70;99.90;;;;;;4973403;28;20052;-73
2023/08/21 03:31:43;;;;;;;20.60;14.63;;;22.70;99.90;;;;;;4973309;28;20041;-72
2023/08/21 03:34:08;;;;;;;21.17;14.88;;;22.70;99.90;;;;;;4955595;28;20038;-71
2023/08/21 03:36:38;;;;;;;20.45;14.70;;;22.70;99.90;;;;;;4955567;28;20039;-72
2023/08/21 03:39:05;;;;;;;21.17;15.75;;;22.70;99.90;;;;;;4955677;28;20395;-72
2023/08/21 03:41:34;;;;;;;22.10;16.73;;;22.70;99.90;;;;;;4955283;28;20424;-73
2023/08/21 03:44:00;;;;;;;21.65;16.83;;;22.70;99.90;;;;;;4954706;28;20038;-73
2023/08/21 03:46:26;;;;;;;22.85;15.50;;;22.60;99.90;;;;;;4972829;28;20023;-74
2023/08/21 03:48:54;;;;;;;18.58;14.38;;;22.70;99.90;;;;;;4955519;28;20029;-73
2023/08/21 03:51:20;;;;;;;23.55;16.15;;;22.60;99.90;;;;;;4972863;28;20038;-74
2023/08/21 03:53:46;;;;;;;22.13;15.48;;;22.60;99.90;;;;;;4972956;28;20023;-73
2023/08/21 03:56:11;;;;;;;21.15;15.18;;;22.60;99.90;;;;;;4972485;28;20033;-75
2023/08/21 03:58:37;;;;;;;23.92;16.17;;;22.60;99.90;;;;;;4972925;28;20470;-73
2023/08/21 04:01:03;;;;;;;21.52;16.40;;;22.60;99.90;;;;;;4955498;28;20070;-74
2023/08/21 04:03:29;;;;;;;20.05;15.43;;;22.60;99.90;;;;;;4955397;28;20070;-73
2023/08/21 04:05:56;;;;;;;20.23;15.15;;;22.70;99.90;;;;;;4954902;28;20430;-73
2023/08/21 04:08:22;;;;;;;32.28;15.25;;;22.80;99.90;;;;;;4965687;28;20062;-74
2023/08/21 04:10:48;;;;;;;20.55;16.40;;;22.80;99.90;;;;;;4946546;28;20407;-73
2023/08/21 04:13:14;;;;;;;23.05;15.23;;;23.00;99.90;;;;;;4966188;28;20043;-73
2023/08/21 04:15:45;;;;;;;19.60;14.23;;;23.10;99.90;;;;;;4954308;28;20118;-74
2023/08/21 04:18:11;;;;;;;26.80;14.35;;;23.30;99.90;;;;;;4972835;28;20026;-73
2023/08/21 04:20:38;;;;;;;21.65;15.00;;;23.60;99.90;;;;;;4938959;28;20043;-74
2023/08/21 04:23:06;;;;;;;26.10;14.50;;;23.70;99.90;;;;;;4940027;28;20019;-73
2023/08/21 04:25:32;;;;;;;19.42;13.32;;;23.90;99.90;;;;;;4972453;28;20048;-74
2023/08/21 04:27:58;;;;;;;20.70;13.82;;;24.10;99.90;;;;;;4957606;28;20073;-72
2023/08/21 04:30:24;;;;;;;27.30;14.75;;;24.30;99.90;;;;;;4954804;28;20065;-74
2023/08/21 04:32:50;;;;;;;18.60;14.02;;;24.50;99.90;;;;;;4955373;28;20023;-74
2023/08/21 04:35:16;;;;;;;18.70;13.60;;;24.80;99.90;;;;;;4955091;28;20092;-74
2023/08/21 04:37:45;;;;;;;19.80;13.88;;;25.00;99.90;;;;;;4954914;28;20494;-74
2023/08/21 04:40:13;;;;;;;22.42;14.07;;;25.10;99.90;;;;;;4955271;28;20038;-74
2023/08/21 04:42:39;;;;;;;20.80;12.52;;;25.30;99.90;;;;;;4954854;28;20035;-74
2023/08/21 04:45:05;;;;;;;19.77;14.35;;;25.50;99.90;;;;;;4955170;28;20023;-73
2023/08/21 04:47:33;;;;;;;22.45;13.77;;;25.50;99.90;;;;;;4955296;28;20030;-73
2023/08/21 04:49:59;;;;;;;23.80;15.50;;;25.40;99.90;;;;;;4956481;28;20047;-74
2023/08/21 04:52:28;;;;;;;19.42;14.05;;;25.40;99.90;;;;;;4958323;28;20037;-74
2023/08/21 04:54:54;;;;;;;17.45;13.77;;;25.70;99.90;;;;;;4958409;28;20030;-73
2023/08/21 04:57:23;;;;;;;22.35;13.60;;;25.90;99.90;;;;;;4958321;28;20053;-74
2023/08/21 04:59:49;;;;;;;17.55;12.10;;;26.40;99.90;;;;;;4957931;28;20027;-73
2023/08/21 05:02:16;;;;;;;21.52;13.63;;;26.70;99.90;;;;;;4957573;28;20033;-74
2023/08/21 05:04:42;;;;;;;20.15;11.88;;;27.10;99.90;;;;;;4954477;28;20038;-74
2023/08/21 05:07:09;;;;;;;23.25;11.95;;;27.40;99.90;;;;;;4956428;28;20023;-74
2023/08/21 05:09:34;;;;;;;16.35;11.35;;;27.50;99.90;;;;;;4937721;28;20047;-73
2023/08/21 05:12:00;;;;;;;16.40;11.82;;;27.30;99.90;;;;;;4938728;28;20023;-74
2023/08/21 05:14:26;;;;;;;20.20;12.50;;;27.10;99.90;;;;;;4938675;28;20063;-74
2023/08/21 05:16:52;;;;;;;18.90;12.23;;;26.60;99.90;;;;;;4954868;28;20094;-74
2023/08/21 05:19:20;;;;;;;19.92;11.88;;;26.60;99.90;;;;;;4937984;28;20030;-73
2023/08/21 05:21:46;;;;;;;23.60;13.15;;;26.40;99.90;;;;;;4966675;28;20027;-73
2023/08/21 05:24:12;;;;;;;19.83;12.82;;;26.20;99.90;;;;;;4937588;28;20023;-73
2023/08/21 05:26:44;;;;;;;;;;;26.00;99.90;;;;;;4938051;29;20364;-74
2023/08/21 05:29:10;;;;;;;20.02;13.63;;;25.90;99.90;;;;;;4967660;28;20155;-74
2023/08/21 05:31:36;;;;;;;25.95;13.00;;;25.90;99.90;;;;;;4975071;28;20042;-74
2023/08/21 05:34:01;;;;;;;20.90;12.80;;;25.80;99.90;;;;;;4958057;28;20135;-74
2023/08/21 05:36:28;;;;;;;19.98;13.65;;;25.90;99.90;;;;;;4957403;28;20101;-73
2023/08/21 05:38:56;;;;;;;18.88;12.15;;;25.90;99.90;;;;;;4957499;28;20070;-75
2023/08/21 05:41:26;;;;;;;16.70;11.75;;;26.00;99.90;;;;;;4957714;28;20035;-74
2023/08/21 05:43:53;;;;;;;19.30;12.95;;;26.20;99.90;;;;;;4957531;28;20031;-74
2023/08/21 05:46:22;;;;;;;21.98;12.70;;;26.20;99.90;;;;;;4957740;28;20109;-73
2023/08/21 05:48:48;;;;;;;20.35;12.70;;;26.20;99.90;;;;;;4957409;28;20066;-73
2023/08/21 05:51:14;;;;;;;20.30;11.90;;;26.30;99.90;;;;;;4957399;28;20047;-73
2023/08/21 05:53:40;;;;;;;19.08;13.23;;;26.50;99.90;;;;;;4957505;28;20095;-74
2023/08/21 05:56:06;;;;;;;21.95;13.02;;;26.70;99.90;;;;;;4957581;28;20027;-74
2023/08/21 05:58:33;;;;;;;19.92;12.93;;;26.70;99.90;;;;;;4957403;28;20466;-73
2023/08/21 06:00:59;;;;;;;22.58;13.43;;;26.90;99.90;;;;;;4973641;28;20019;-74
2023/08/21 06:03:25;;;;;;;26.17;13.95;;;26.80;99.90;;;;;;4956926;28;20046;-74
2023/08/21 06:06:06;;;;;;;18.27;12.52;;;26.60;99.90;;;;;;4957056;28;20475;-73
2023/08/21 06:08:31;;;;;;;20.27;12.65;;;26.90;99.90;;;;;;4957173;28;20026;-74
2023/08/21 06:10:57;;;;;;;22.95;12.90;;;27.10;99.90;;;;;;4956684;28;20125;-73
2023/08/21 06:13:24;;;;;;;17.65;12.10;;;27.20;99.90;;;;;;4957137;28;20490;-73
2023/08/21 06:15:54;;;;;;;18.00;11.98;;;27.00;99.90;;;;;;4956997;28;20031;-74
2023/08/21 06:18:21;;;;;;;20.20;12.45;;;26.90;99.90;;;;;;4957186;28;20027;-74
2023/08/21 06:20:48;;;;;;;23.05;12.70;;;27.10;99.90;;;;;;4956909;28;21093;-74
2023/08/21 06:23:14;;;;;;;20.75;12.18;;;27.00;99.90;;;;;;4956883;28;20121;-73
2023/08/21 06:25:44;;;;;;;19.75;12.52;;;27.20;99.90;;;;;;4956999;28;20027;-74
2023/08/21 06:28:11;;;;;;;20.17;12.70;;;27.30;99.90;;;;;;4956859;28;20057;-75
2023/08/21 06:30:36;;;;;;;16.88;12.32;;;27.30;99.90;;;;;;4974018;28;20022;-73
2023/08/21 06:33:02;;;;;;;18.08;12.50;;;27.40;99.90;;;;;;4974025;28;20034;-76
2023/08/21 06:35:29;;;;;;;19.52;13.32;;;;;;;;;;4937185;29;20475;-75
2023/08/21 06:37:55;;;;;;;17.20;12.63;;;27.70;99.90;;;;;;4947445;28;20039;-74
2023/08/21 06:40:20;;;;;;;23.85;12.40;;;27.70;99.90;;;;;;4941036;28;20086;-74
2023/08/21 06:42:49;;;;;;;23.90;12.27;;;27.90;99.90;;;;;;4956489;28;20458;-73
2023/08/21 06:45:17;;;;;;;18.85;12.45;;;28.10;99.90;;;;;;4956453;28;20035;-74
2023/08/21 06:47:43;;;;;;;29.70;14.68;;;28.30;99.90;;;;;;4956701;28;20458;-75
2023/08/21 06:50:10;;;;;;;25.63;14.90;;;28.40;99.90;;;;;;4956222;28;20073;-75
2023/08/21 06:52:36;;;;;;;18.73;12.73;;;28.40;99.90;;;;;;4973883;28;20122;-73
2023/08/21 06:55:02;;;;;;;18.10;12.55;;;28.30;99.90;;;;;;4973348;28;20109;-75
2023/08/21 06:57:28;;;;;;;19.45;12.95;;;;;;;;;;4973585;28;20030;-76
2023/08/21 06:59:54;;;;;;;22.48;13.25;;;28.90;99.90;;;;;;4973758;28;20033;-74
2023/08/21 07:02:20;;;;;;;18.70;12.85;;;28.90;99.90;;;;;;4973574;28;20030;-73
2023/08/21 07:04:46;;;;;;;19.65;13.88;;;29.00;99.90;;;;;;4973261;28;20037;-74
2023/08/21 07:07:11;;;;;;;18.80;12.00;;;29.20;99.90;;;;;;4973324;28;20155;-75
2023/08/21 07:09:37;;;;;;;17.63;11.77;;;29.10;99.90;;;;;;4973261;28;20141;-74
2023/08/21 07:12:04;;;;;;;20.88;12.57;;;;;;;;;;4972917;28;20394;-74
2023/08/21 07:14:29;;;;;;;20.25;12.07;;;29.20;99.90;;;;;;4973530;28;20038;-74
2023/08/21 07:16:56;;;;;;;18.70;11.27;;;;;;;;;;4973107;28;20033;-73
2023/08/21 07:19:21;;;;;;;18.38;11.93;;;29.70;99.90;;;;;;4973348;28;20065;-74
2023/08/21 07:21:47;;;;;;;16.83;11.15;;;29.60;99.90;;;;;;4973034;28;20034;-74
2023/08/21 07:24:13;;;;;;;16.63;11.57;;;29.90;99.90;;;;;;4973354;28;20085;-73
2023/08/21 07:26:39;;;;;;;17.27;11.15;;;29.80;99.90;;;;;;4973280;28;20496;-75
2023/08/21 07:29:05;;;;;;;13.85;10.43;;;29.70;99.90;;;;;;4973195;28;20018;-75
2023/08/21 07:31:31;;;;;;;20.10;12.65;;;29.80;99.90;;;;;;4973014;28;20097;-76
2023/08/21 07:33:57;;;;;;;16.42;11.45;;;30.00;99.90;;;;;;4973095;28;20023;-74
2023/08/21 07:36:23;;;;;;;18.85;10.50;;;30.10;99.90;;;;;;4973545;28;20113;-73
2023/08/21 07:38:50;;;;;;;19.77;11.77;;;30.20;99.50;;;;;;4972926;28;20022;-73
2023/08/21 07:41:16;;;;;;;15.70;11.00;;;;;;;;;;4973248;28;20047;-73
2023/08/21 07:43:43;;;;;;;15.45;11.45;;;30.70;99.90;;;;;;4973203;28;20018;-74
2023/08/21 07:46:13;;;;;;;21.20;12.05;;;;;;;;;;4973033;28;20098;-74
2023/08/21 07:48:39;;;;;;;132.15;34.67;;;30.90;99.90;;;;;;4972792;28;20070;-74
2023/08/21 07:51:05;;;;;;;21.65;12.02;;;30.90;97.50;;;;;;4973012;28;20039;-74
2023/08/21 07:53:34;;;;;;;60.33;16.17;;;30.50;97.80;;;;;;4972507;28;20462;-75
2023/08/21 07:56:01;;;;;;;102.03;24.27;;;30.70;97.30;;;;;;4973084;28;20027;-74
2023/08/21 07:58:27;;;;;;;27.00;14.00;;;30.50;98.50;;;;;;4972862;28;20069;-75
2023/08/21 08:00:53;;;;;;;47.30;14.80;;;30.80;98.20;;;;;;4972972;28;20436;-74
2023/08/21 08:03:18;;;;;;;17.30;11.55;;;31.00;98.00;;;;;;4972899;28;20031;-73
2023/08/21 08:05:44;;;;;;;18.08;11.30;;;31.00;98.40;;;;;;4972782;28;20065;-73
2023/08/21 08:08:10;;;;;;;15.80;10.63;;;31.20;96.00;;;;;;4972760;28;20098;-73
2023/08/21 08:10:40;;;;;;;16.00;11.25;;;31.10;96.30;;;;;;4955340;28;20066;-74
2023/08/21 08:13:07;;;;;;;22.13;11.70;;;31.20;96.80;;;;;;4972771;28;20043;-75
2023/08/21 08:15:34;;;;;;;20.85;12.38;;;31.10;95.30;;;;;;4972670;28;20034;-73
2023/08/21 08:18:02;;;;;;;24.67;11.30;;;31.20;96.30;;;;;;4972845;28;20030;-75
2023/08/21 08:20:28;;;;;;;19.13;10.90;;;31.10;96.70;;;;;;4972499;28;20363;-74
2023/08/21 08:22:55;;;;;;;18.42;10.90;;;31.20;96.30;;;;;;4960052;28;20042;-75
2023/08/21 08:25:21;;;;;;;21.48;12.20;;;;;;;;;;4975212;28;20486;-75
2023/08/21 08:27:47;;;;;;;16.10;11.18;;;31.70;96.60;;;;;;4963409;28;20027;-73
2023/08/21 08:30:13;;;;;;;19.00;10.90;;;31.50;96.90;;;;;;4976333;28;20118;-73
2023/08/21 08:32:44;;;;;;;16.92;10.98;;;31.80;94.60;;;;;;4976197;28;20066;-75
2023/08/21 08:35:14;;;;;;;19.20;12.23;;;31.60;95.00;;;;;;4976251;28;20086;-75
2023/08/21 08:37:43;;;;;;;18.23;12.32;;;31.60;95.00;;;;;;4975918;28;20034;-75
2023/08/21 08:40:10;;;;;;;16.73;11.23;;;31.80;94.00;;;;;;4975964;28;20054;-73
2023/08/21 08:42:36;;;;;;;19.60;10.90;;;31.80;93.70;;;;;;4976038;28;20030;-75
2023/08/21 08:45:04;;;;;;;19.00;12.15;;;31.80;93.30;;;;;;4975762;28;20038;-73
2023/08/21 08:47:33;;;;;;;27.65;12.63;;;32.20;93.90;;;;;;4976215;28;20023;-74
2023/08/21 08:50:01;;;;;;;18.30;11.65;;;32.10;94.20;;;;;;4975606;28;20105;-74
2023/08/21 08:52:27;;;;;;;14.65;10.95;;;32.20;93.70;;;;;;4976171;28;20027;-74
2023/08/21 08:54:55;;;;;;;18.20;11.25;;;32.30;92.80;;;;;;4976106;28;20457;-74
2023/08/21 08:57:21;;;;;;;15.55;10.57;;;32.40;92.10;;;;;;4975976;28;20471;-74
2023/08/21 08:59:47;;;;;;;17.52;10.88;;;32.40;92.30;;;;;;4975686;28;20033;-74
2023/08/21 09:02:13;;;;;;;16.38;10.27;;;32.50;92.20;;;;;;4958577;28;20129;-74
2023/08/21 09:04:38;;;;;;;18.00;10.38;;;32.50;91.60;;;;;;4975417;28;20039;-74
2023/08/21 09:07:09;;;;;;;19.48;11.52;;;32.30;91.10;;;;;;4975741;28;20058;-74
2023/08/21 09:09:45;;;;;;;12.43;9.60;;;32.40;91.80;;;;;;4975422;28;20109;-74
2023/08/21 09:12:13;;;;;;;18.13;9.88;;;32.50;91.00;;;;;;4975455;28;20110;-74
2023/08/21 09:14:43;;;;;;;17.65;9.98;;;32.50;90.60;;;;;;4975662;28;20030;-75
2023/08/21 09:17:09;;;;;;;13.93;9.15;;;32.60;90.10;;;;;;4975169;28;20552;-74
2023/08/21 09:19:35;;;;;;;15.35;9.30;;;32.70;90.40;;;;;;4975247;28;20050;-73
2023/08/21 09:22:13;;;;;;;14.68;8.88;;;32.70;90.60;;;;;;4975712;28;20387;-75
2023/08/21 09:24:40;;;;;;;17.27;8.95;;;;;;;;;;4975189;28;20378;-76
2023/08/21 09:27:18;;;;;;;14.13;8.98;;;33.00;87.50;;;;;;4975746;28;20027;-74
2023/08/21 09:29:47;;;;;;;13.35;9.52;;;33.20;88.40;;;;;;4975114;28;20035;-74
2023/08/21 09:32:15;;;;;;;13.48;8.70;;;33.50;87.60;;;;;;4975066;28;20394;-74
2023/08/21 09:34:41;;;;;;;12.98;8.63;;;33.50;88.50;;;;;;4975251;28;20069;-74
2023/08/21 09:37:09;;;;;;;14.20;9.15;;;33.80;86.50;;;;;;4974744;28;20062;-74
2023/08/21 09:39:36;;;;;;;13.85;8.88;;;33.70;86.10;;;;;;4975409;28;20023;-75
2023/08/21 09:42:09;;;;;;;13.80;9.45;;;33.60;84.60;;;;;;4974809;28;20093;-73
2023/08/21 09:44:43;;;;;;;16.17;9.45;;;33.60;85.30;;;;;;4975036;28;20034;-75
2023/08/21 09:47:10;;;;;;;15.45;9.07;;;33.50;87.00;;;;;;4974692;28;20049;-76
2023/08/21 09:49:38;;;;;;;20.02;8.77;;;33.80;86.70;;;;;;4974839;28;20039;-74
2023/08/21 09:52:05;;;;;;;18.40;8.85;;;33.70;84.20;;;;;;4975009;28;20501;-75
2023/08/21 09:54:35;;;;;;;15.30;8.70;;;33.60;85.70;;;;;;4974612;28;20030;-74
2023/08/21 09:57:03;;;;;;;13.68;9.38;;;33.70;82.10;;;;;;4974844;28;20061;-74
2023/08/21 09:59:31;;;;;;;17.33;9.48;;;33.60;83.60;;;;;;4974757;28;20034;-74
2023/08/21 10:02:04;;;;;;;13.55;8.75;;;33.60;83.70;;;;;;4975041;28;20081;-73
2023/08/21 10:04:34;;;;;;;13.13;8.93;;;33.60;84.30;;;;;;4974550;28;20505;-74
2023/08/21 10:07:03;;;;;;;21.63;9.05;;;33.80;85.00;;;;;;4974509;28;20085;-74
2023/08/21 10:09:30;;;;;;;15.40;8.32;;;33.60;83.20;;;;;;4974613;28;20109;-74
2023/08/21 10:11:57;;;;;;;14.38;9.07;;;33.90;83.00;;;;;;4974489;28;20073;-73
2023/08/21 10:14:26;;;;;;;15.57;9.60;;;33.80;83.40;;;;;;4974617;28;20070;-74
2023/08/21 10:16:53;;;;;;;14.75;8.98;;;34.10;83.80;;;;;;4974396;28;20026;-74
2023/08/21 10:19:21;;;;;;;20.10;9.73;;;34.30;96.60;;;;;;4974280;28;20383;-74
2023/08/21 10:21:49;;;;;;;14.15;9.40;;;34.30;96.70;;;;;;4974217;28;20117;-74
2023/08/21 10:24:28;;;;;;;19.40;10.00;;;34.20;81.40;;;;;;4974015;28;20049;-74
2023/08/21 10:26:54;;;;;;;19.50;11.55;;;34.30;80.60;;;;;;4974417;28;20034;-73
2023/08/21 10:29:19;;;;;;;16.33;10.50;;;34.20;80.40;;;;;;4973795;28;20037;-74
2023/08/21 10:31:46;;;;;;;14.05;9.68;;;;;;;;;;4974662;28;20062;-73
2023/08/21 10:34:13;;;;;;;14.25;9.85;;;34.50;81.40;;;;;;4973904;28;20110;-74
2023/08/21 10:37:07;;;;;;;19.33;10.38;;;34.60;79.10;;;;;;4974253;28;20030;-75
2023/08/21 10:39:35;;;;;;;22.42;10.75;;;34.50;78.90;;;;;;4966896;28;20053;-74
2023/08/21 10:42:03;;;;;;;16.63;11.32;;;34.50;79.30;;;;;;4973769;28;20105;-73
2023/08/21 10:44:55;;;;;;;16.13;10.95;;;34.40;78.90;;;;;;4974213;28;20511;-75
2023/08/21 10:47:30;;;;;;;14.77;10.43;;;34.40;78.90;;;;;;4973379;28;20368;-76
2023/08/21 10:49:58;;;;;;;20.65;10.27;;;34.40;77.60;;;;;;4973655;28;20041;-73
2023/08/21 10:52:28;;;;;;;14.93;9.57;;;34.40;79.70;;;;;;4956613;28;20054;-76
2023/08/21 10:54:59;;;;;;;16.20;9.90;;;34.30;78.90;;;;;;4973682;28;20471;-73
2023/08/21 10:57:26;;;;;;;18.55;10.95;;;34.50;77.60;;;;;;4973490;28;20491;-73
2023/08/21 11:00:00;;;;;;;22.63;10.10;;;34.60;77.70;;;;;;4973742;28;20066;-74
2023/08/21 11:02:29;;;;;;;14.95;10.30;;;34.60;75.90;;;;;;4960937;28;20490;-74
2023/08/21 11:04:55;;;;;;;15.15;9.35;;;34.80;78.80;;;;;;4973653;28;20034;-74
2023/08/21 11:07:21;;;;;;;20.63;10.65;;;35.00;77.70;;;;;;4973215;28;20027;-73
2023/08/21 11:09:48;;;;;;;24.65;11.63;;;35.20;76.90;;;;;;4973356;28;20057;-74
2023/08/21 11:12:22;;;;;;;14.80;10.20;;;35.20;76.60;;;;;;4973376;28;20039;-73
2023/08/21 11:14:48;;;;;;;16.75;8.73;;;35.30;77.40;;;;;;4973263;28;20487;-74
2023/08/21 11:17:14;;;;;;;11.13;8.40;;;34.90;76.10;;;;;;4956081;28;20027;-73
2023/08/21 11:19:41;;;;;;;10.20;7.63;;;;;;;;;;4973380;28;20105;-74
2023/08/21 11:22:08;;;;;;;14.18;8.50;;;34.50;75.20;;;;;;4973488;28;20035;-74
2023/08/21 11:24:42;;;;;;;16.25;9.05;;;34.60;75.90;;;;;;4973498;28;20034;-73
2023/08/21 11:27:12;;;;;;;13.38;8.25;;;34.70;76.70;;;;;;4973059;28;20050;-73
2023/08/21 11:29:43;;;;;;;12.50;8.17;;;34.50;76.90;;;;;;4973217;28;20438;-76
2023/08/21 11:32:13;;;;;;;;;;;34.70;77.20;;;;;;4973258;28;20030;-75
2023/08/21 11:34:39;;;;;;;12.23;8.07;;;34.60;75.70;;;;;;4973459;28;19909;-75
2023/08/21 11:37:05;;;;;;;14.77;7.95;;;34.80;75.50;;;;;;4973227;28;20035;-76
2023/08/21 11:39:48;;;;;;;11.50;7.50;;;34.60;75.30;;;;;;4973339;28;20122;-74
2023/08/21 11:42:15;;;;;;;13.38;7.68;;;34.70;75.00;;;;;;4972995;28;20034;-74
2023/08/21 11:44:52;;;;;;;13.30;8.30;;;34.80;75.80;;;;;;4973054;28;20037;-74
2023/08/21 11:47:20;;;;;;;14.23;7.88;;;34.70;76.70;;;;;;4960943;28;20042;-76
2023/08/21 11:49:48;;;;;;;12.43;8.38;;;34.90;77.30;;;;;;4972860;28;20462;-74
2023/08/21 11:52:22;;;;;;;14.57;7.68;;;34.90;76.50;;;;;;4973180;28;20042;-73
2023/08/21 11:54:53;;;;;;;12.25;8.02;;;35.10;74.20;;;;;;4972961;28;20030;-75
2023/08/21 11:57:21;;;;;;;9.75;7.00;;;34.80;75.00;;;;;;4972866;28;20038;-74
2023/08/21 11:59:51;;;;;;;12.07;7.75;;;34.70;74.30;;;;;;4976515;28;20015;-73
2023/08/21 12:02:22;;;;;;;10.10;7.90;;;34.40;74.80;;;;;;4976906;28;20045;-73
2023/08/21 12:05:13;;;;;;;14.70;8.00;;;34.10;76.20;;;;;;4976936;28;20027;-73
2023/08/21 12:07:39;;;;;;;;;;;34.00;75.30;;;;;;4977394;28;20038;-74
2023/08/21 12:10:05;;;;;;;11.25;7.30;;;34.20;74.80;;;;;;4976282;28;19922;-74
2023/08/21 12:12:31;;;;;;;8.75;6.93;;;34.20;74.00;;;;;;4976792;28;20090;-73
2023/08/21 12:14:57;;;;;;;16.10;7.50;;;;;;;;;;4976803;28;20026;-74
2023/08/21 12:17:23;;;;;;;10.90;7.05;;;34.60;74.10;;;;;;4976615;28;20092;-73
2023/08/21 12:19:49;;;;;;;14.27;8.82;;;34.70;74.50;;;;;;4976477;28;20146;-75
2023/08/21 12:22:15;;;;;;;10.65;7.35;;;34.80;75.00;;;;;;4976342;28;20038;-73
2023/08/21 12:24:41;;;;;;;10.60;6.88;;;34.20;73.60;;;;;;4976656;28;20022;-76
2023/08/21 12:27:08;;;;;;;11.38;8.48;;;34.20;74.30;;;;;;4959262;28;20109;-75
2023/08/21 12:29:34;;;;;;;13.70;7.63;;;34.50;75.10;;;;;;4976752;28;20538;-73
2023/08/21 12:32:00;;;;;;;10.70;7.47;;;34.40;75.40;;;;;;4976139;28;20041;-75
2023/08/21 12:34:26;;;;;;;15.00;7.88;;;34.40;74.50;;;;;;4976540;28;20054;-74